Time;durP1;ratioP1;P1;durP2;ratioP2;P2;SDS_P1;SDS_P2;PMS_P1;PMS_P2;Temp;Humidity;BMP_temperature;BMP_pressure;BME280_temperature;BME280_humidity;BME280_pressure;Samples;Min_cycle;Max_cycle;Signal;HPM_P1;HPM_P2
2022/04/06 00:00:41;;;;;;;18.15;13.90;;;;;;;6.49;75.14;100057.64;1744717;80;20948;-73
2022/04/06 00:03:08;;;;;;;18.90;15.15;;;;;;;6.49;75.27;100059.81;1744620;82;21446;-74
2022/04/06 00:05:35;;;;;;;22.10;14.87;;;;;;;6.48;75.41;100062.02;1744803;81;20980;-74
2022/04/06 00:08:02;;;;;;;22.70;15.95;;;;;;;6.48;75.48;100066.39;1744701;82;21113;-74
2022/04/06 00:10:31;;;;;;;18.02;13.90;;;;;;;6.47;75.63;100051.23;1744545;82;20936;-73
2022/04/06 00:12:59;;;;;;;16.30;13.45;;;;;;;6.48;75.72;100064.63;1744621;82;20897;-74
2022/04/06 00:15:27;;;;;;;21.50;15.75;;;;;;;6.49;75.74;100053.73;1744737;82;20881;-74
2022/04/06 00:17:54;;;;;;;18.35;14.63;;;;;;;6.49;75.89;100064.16;1744703;82;20988;-74
2022/04/06 00:20:21;;;;;;;17.15;14.68;;;;;;;6.49;76.02;100070.23;1744855;81;21119;-74
2022/04/06 00:22:50;;;;;;;19.40;15.63;;;;;;;6.50;76.03;100068.47;1744700;81;20949;-75
2022/04/06 00:25:16;;;;;;;18.85;15.55;;;;;;;6.51;76.07;100065.76;1744807;82;20929;-75
2022/04/06 00:27:44;;;;;;;20.05;15.28;;;;;;;6.53;76.19;100076.11;1744523;81;20960;-75
2022/04/06 00:30:12;;;;;;;18.80;15.50;;;;;;;6.53;76.31;100080.84;1744729;80;20885;-75
2022/04/06 00:32:39;;;;;;;20.27;15.68;;;;;;;6.51;76.45;100080.08;1744727;82;21646;-74
2022/04/06 00:37:53;;;;;;;24.35;17.23;;;;;;;6.54;76.49;100079.95;1744631;81;20909;-74
2022/04/06 00:40:22;;;;;;;23.32;16.67;;;;;;;6.57;76.48;100081.55;1746895;82;20941;-73
2022/04/06 00:42:50;;;;;;;20.08;15.85;;;;;;;6.60;76.53;100086.58;1745846;81;20909;-72
2022/04/06 00:45:17;;;;;;;19.35;15.25;;;;;;;6.62;76.49;100086.88;1744986;82;22038;-74
2022/04/06 00:47:45;;;;;;;23.60;16.10;;;;;;;6.64;76.53;100090.25;1744603;80;20937;-74
2022/04/06 00:50:12;;;;;;;26.15;16.87;;;;;;;6.64;76.52;100091.55;1745066;81;21012;-75
2022/04/06 00:52:39;;;;;;;17.87;14.28;;;;;;;6.67;76.54;100095.78;1744612;82;20905;-74
2022/04/06 00:55:08;;;;;;;19.37;16.45;;;;;;;6.69;76.57;100096.98;1744642;81;20992;-74
2022/04/06 00:57:35;;;;;;;21.80;15.48;;;;;;;6.70;76.56;100094.31;1745029;82;21226;-73
2022/04/06 01:00:03;;;;;;;27.95;17.80;;;;;;;6.70;76.62;100087.80;1744564;82;20901;-75
2022/04/06 01:02:31;;;;;;;20.65;15.43;;;;;;;6.71;76.60;100097.75;1744863;82;20972;-74
2022/04/06 01:04:58;;;;;;;21.40;15.60;;;;;;;6.73;76.62;100091.53;1744684;82;20933;-74
2022/04/06 01:07:26;;;;;;;23.65;16.45;;;;;;;6.75;76.57;100079.73;1744606;81;20917;-74
2022/04/06 01:09:53;;;;;;;19.15;15.15;;;;;;;6.77;76.50;100099.58;1744581;80;22232;-75
2022/04/06 01:12:21;;;;;;;21.77;17.40;;;;;;;6.80;76.51;100095.95;1744890;81;20881;-75
2022/04/06 01:14:47;;;;;;;18.42;15.95;;;;;;;6.81;76.46;100098.49;1744592;82;21450;-75
2022/04/06 01:17:14;;;;;;;20.27;16.52;;;;;;;6.82;76.46;100091.04;1744581;81;20905;-75
2022/04/06 01:19:44;;;;;;;23.90;16.50;;;;;;;6.84;76.50;100095.71;1744992;81;21402;-75
2022/04/06 01:22:13;;;;;;;22.40;16.15;;;;;;;6.86;76.45;100086.52;1744848;81;21155;-75
2022/04/06 01:24:40;;;;;;;21.80;15.48;;;;;;;6.88;76.44;100087.28;1744708;82;21351;-75
2022/04/06 01:27:08;;;;;;;19.15;15.60;;;;;;;6.88;76.43;100079.47;1744566;82;21442;-74
2022/04/06 01:29:35;;;;;;;20.45;14.70;;;;;;;6.91;76.45;100086.27;1745018;81;20949;-75
2022/04/06 01:32:20;;;;;;;21.27;16.48;;;;;;;6.91;76.45;100071.47;1744629;82;20861;-75
2022/04/06 01:34:47;;;;;;;26.00;15.78;;;;;;;6.91;76.50;100079.29;1744608;81;21180;-75
2022/04/06 01:37:15;;;;;;;19.27;15.38;;;;;;;6.92;76.50;100065.34;1744672;81;20841;-75
2022/04/06 01:39:43;;;;;;;18.95;15.13;;;;;;;6.93;76.58;100072.23;1745059;81;20897;-75
2022/04/06 01:42:15;;;;;;;18.10;14.85;;;;;;;6.93;76.64;100067.48;1744543;81;20952;-74
2022/04/06 01:44:44;;;;;;;23.45;16.23;;;;;;;6.94;76.66;100075.70;1744615;82;21335;-74
2022/04/06 01:47:11;;;;;;;24.90;16.15;;;;;;;6.95;76.68;100069.08;1744948;82;21871;-75
2022/04/06 01:52:25;;;;;;;19.27;15.98;;;;;;;6.95;76.75;100069.55;1744658;82;20960;-74
2022/04/06 01:55:01;;;;;;;25.72;17.60;;;;;;;6.95;76.76;100072.99;1744557;81;21082;-75
2022/04/06 01:57:29;;;;;;;19.75;15.48;;;;;;;6.97;76.76;100081.58;1744566;81;20925;-74
2022/04/06 01:59:56;;;;;;;20.00;14.47;;;;;;;7.00;76.71;100080.13;1744508;82;21121;-74
2022/04/06 02:02:25;;;;;;;23.20;16.20;;;;;;;7.03;76.74;100085.63;1744880;82;20853;-75
2022/04/06 02:04:51;;;;;;;18.12;15.20;;;;;;;7.03;76.66;100089.07;1744746;82;20932;-75
2022/04/06 02:07:18;;;;;;;24.65;16.10;;;;;;;7.05;76.66;100098.95;1745278;80;21339;-74
2022/04/06 02:09:46;;;;;;;20.62;15.60;;;;;;;7.10;76.60;100107.00;1744606;82;20990;-75
2022/04/06 02:12:15;;;;;;;22.75;14.98;;;;;;;7.11;76.50;100104.29;1744848;82;21312;-74
2022/04/06 02:14:42;;;;;;;19.85;15.45;;;;;;;7.13;76.46;100098.53;1744540;82;21004;-74
2022/04/06 02:17:10;;;;;;;18.20;14.25;;;;;;;7.15;76.39;100099.29;1744620;82;20953;-75
2022/04/06 02:19:39;;;;;;;19.12;14.83;;;;;;;7.17;76.35;100108.34;1744563;82;20941;-75
2022/04/06 02:22:08;;;;;;;21.15;15.58;;;;;;;7.17;76.35;100103.96;1734487;82;20917;-73
2022/04/06 02:24:35;;;;;;;24.50;16.05;;;;;;;7.18;76.32;100117.83;1745616;81;21803;-74
2022/04/06 02:27:02;;;;;;;20.52;15.08;;;;;;;7.19;76.31;100119.06;1744660;82;20920;-76
2022/04/06 02:29:29;;;;;;;20.23;14.43;;;;;;;7.21;76.28;100116.39;1745043;82;20924;-76
2022/04/06 02:31:55;;;;;;;18.77;13.35;;;;;;;7.21;76.31;100117.69;1744598;81;21482;-74
2022/04/06 02:34:23;;;;;;;19.62;15.03;;;;;;;7.20;76.30;100122.07;1744642;81;20893;-75
2022/04/06 02:36:50;;;;;;;21.05;14.45;;;;;;;7.20;76.33;100116.86;1744765;80;21759;-76
2022/04/06 02:39:16;;;;;;;22.15;15.28;;;;;;;7.19;76.36;100116.45;1744611;82;20960;-74
2022/04/06 02:41:44;;;;;;;22.15;14.13;;;;;;;7.20;76.41;100124.68;1744635;82;20995;-73
2022/04/06 02:44:11;;;;;;;19.82;15.38;;;;;;;7.20;76.40;100121.20;1744658;81;20952;-75
2022/04/06 02:46:38;;;;;;;17.00;13.70;;;;;;;7.20;76.40;100131.20;1744643;82;20956;-75
2022/04/06 02:49:06;;;;;;;19.82;14.20;;;;;;;7.21;76.40;100130.73;1745008;81;20964;-71
2022/04/06 02:51:33;;;;;;;19.48;13.65;;;;;;;7.21;76.40;100142.00;1744661;82;21082;-74
2022/04/06 02:54:00;;;;;;;19.48;14.05;;;;;;;7.22;76.38;100148.87;1744582;81;20881;-75
2022/04/06 02:56:27;;;;;;;29.92;22.07;;;;;;;7.22;76.36;100146.27;1744557;81;20976;-74
2022/04/06 02:58:55;;;;;;;19.25;14.60;;;;;;;7.22;76.35;100147.58;1744586;82;20991;-74
2022/04/06 03:01:22;;;;;;;25.20;15.43;;;;;;;7.22;76.30;100157.17;1744721;82;21191;-75
2022/04/06 03:03:48;;;;;;;21.97;15.78;;;;;;;7.22;76.27;100167.13;1744557;82;20881;-75
2022/04/06 03:06:16;;;;;;;20.30;15.13;;;;;;;7.24;76.28;100167.06;1744607;82;21039;-76
2022/04/06 03:08:44;;;;;;;20.97;15.15;;;;;;;7.27;76.23;100173.44;1744435;82;21378;-75
2022/04/06 03:11:11;;;;;;;25.92;16.93;;;;;;;7.29;76.18;100170.25;1744613;82;20884;-74
2022/04/06 03:13:39;;;;;;;23.47;16.27;;;;;;;7.30;75.98;100172.42;1744583;81;20972;-75
2022/04/06 03:16:07;;;;;;;17.60;14.45;;;;;;;7.32;75.92;100169.28;1744501;82;21382;-76
2022/04/06 03:18:34;;;;;;;20.97;15.63;;;;;;;7.34;75.83;100166.96;1744638;82;20901;-75
2022/04/06 03:21:02;;;;;;;24.65;15.40;;;;;;;7.36;75.66;100172.07;1744845;81;21243;-74
2022/04/06 03:23:29;;;;;;;23.25;15.45;;;;;;;7.38;75.50;100173.70;1744579;82;20849;-74
2022/04/06 03:25:56;;;;;;;27.52;16.07;;;;;;;7.39;75.36;100179.28;1744655;81;21128;-76
2022/04/06 03:28:23;;;;;;;25.30;14.38;;;;;;;7.41;75.17;100195.70;1744546;82;20928;-74
2022/04/06 03:30:51;;;;;;;22.95;14.80;;;;;;;7.40;75.02;100190.55;1744875;82;21353;-75
2022/04/06 03:33:18;;;;;;;22.98;15.75;;;;;;;7.40;75.00;100185.33;1745070;82;20937;-75
2022/04/06 03:35:45;;;;;;;22.40;14.25;;;;;;;7.41;74.86;100186.56;1745048;82;20901;-75
2022/04/06 03:38:11;;;;;;;23.85;16.30;;;;;;;7.41;74.71;100186.56;1744755;82;21906;-75
2022/04/06 03:40:38;;;;;;;20.45;15.80;;;;;;;7.43;74.58;100198.23;1744661;82;20882;-75
2022/04/06 03:43:05;;;;;;;20.12;14.58;;;;;;;7.44;74.47;100199.91;1744675;81;21498;-74
2022/04/06 03:45:33;;;;;;;24.82;15.10;;;;;;;7.46;74.33;100201.97;1744844;82;20932;-74
2022/04/06 03:48:02;;;;;;;22.52;15.78;;;;;;;7.48;74.19;100194.44;1744733;82;20921;-76
2022/04/06 03:50:29;;;;;;;21.10;14.50;;;;;;;7.50;74.08;100200.88;1744777;82;21529;-75
2022/04/06 03:52:55;;;;;;;19.20;14.00;;;;;;;7.53;73.81;100208.53;1744909;82;21542;-71
2022/04/06 03:55:23;;;;;;;18.73;15.00;;;;;;;7.56;73.54;100214.05;1746498;82;20897;-71
2022/04/06 03:57:50;;;;;;;19.42;13.75;;;;;;;7.59;73.24;100223.03;1746218;82;20857;-73
2022/04/06 04:00:17;;;;;;;17.77;13.13;;;;;;;7.61;73.04;100222.48;1744730;82;21476;-74
2022/04/06 04:02:45;;;;;;;20.48;13.62;;;;;;;7.63;72.65;100234.99;1744751;80;21226;-76
2022/04/06 04:05:14;;;;;;;20.68;14.38;;;;;;;7.66;72.48;100229.59;1744764;81;21024;-74
2022/04/06 04:07:40;;;;;;;21.17;14.10;;;;;;;7.70;72.10;100242.03;1744825;82;20873;-74
2022/04/06 04:10:09;;;;;;;24.55;15.00;;;;;;;7.73;71.87;100243.16;1754352;81;20940;-75
2022/04/06 04:12:37;;;;;;;18.52;12.70;;;;;;;7.77;71.74;100239.45;1758047;81;20908;-75
2022/04/06 04:15:05;;;;;;;19.60;13.75;;;;;;;7.81;71.48;100234.45;1758209;81;21365;-74
2022/04/06 04:17:33;;;;;;;21.62;13.80;;;;;;;7.85;71.08;100238.59;1758006;81;20955;-74
2022/04/06 04:19:59;;;;;;;17.57;13.08;;;;;;;7.87;70.89;100256.31;1758311;81;20927;-74
2022/04/06 04:22:29;;;;;;;20.75;13.55;;;;;;;7.89;70.71;100258.34;1758067;81;20948;-74
2022/04/06 04:24:57;;;;;;;18.07;13.13;;;;;;;7.92;70.39;100270.42;1758020;81;20932;-74
2022/04/06 04:27:24;;;;;;;20.50;13.98;;;;;;;7.94;70.27;100272.45;1758537;81;21127;-75
2022/04/06 04:29:51;;;;;;;20.55;13.83;;;;;;;7.97;70.06;100274.45;1757955;80;20900;-75
2022/04/06 04:32:19;;;;;;;20.45;12.93;;;;;;;8.00;69.73;100279.96;1758086;81;20904;-74
2022/04/06 04:34:46;;;;;;;19.17;14.03;;;;;;;8.03;69.37;100283.73;1757913;81;20904;-75
2022/04/06 04:37:13;;;;;;;18.23;12.90;;;;;;;8.05;69.07;100284.48;1758054;80;20912;-74
2022/04/06 04:39:40;;;;;;;18.95;14.07;;;;;;;8.08;68.93;100287.75;1757893;80;21968;-75
2022/04/06 04:42:09;;;;;;;21.82;14.15;;;;;;;8.15;68.81;100296.09;1758148;80;20960;-75
2022/04/06 04:44:37;;;;;;;20.30;13.05;;;;;;;8.22;68.48;100293.98;1757983;81;21424;-75
2022/04/06 04:47:05;;;;;;;18.77;14.75;;;;;;;8.32;68.16;100306.09;1758007;81;20971;-75
2022/04/06 04:49:32;;;;;;;25.48;16.12;;;;;;;8.42;67.90;100296.83;1758310;80;21417;-75
2022/04/06 04:51:59;;;;;;;18.75;15.15;;;;;;;8.50;67.41;100293.33;1758104;80;21231;-74
2022/04/06 04:54:26;;;;;;;24.98;17.00;;;;;;;8.69;66.94;100291.36;1758186;81;20987;-75
2022/04/06 04:56:52;;;;;;;29.00;18.27;;;;;;;9.11;66.47;100302.86;1758299;80;20899;-75
2022/04/06 04:59:20;;;;;;;22.32;15.83;;;;;;;9.75;65.11;100309.06;1758209;81;20939;-75
2022/04/06 05:01:46;;;;;;;18.20;14.28;;;;;;;10.45;63.05;100322.61;1758343;80;20900;-76
2022/04/06 05:04:13;;;;;;;18.57;13.10;;;;;;;11.08;60.85;100315.41;1758489;81;21576;-76
2022/04/06 05:06:41;;;;;;;16.52;12.68;;;;;;;11.69;58.75;100329.23;1758249;81;20924;-74
2022/04/06 05:09:08;;;;;;;21.70;14.53;;;;;;;12.19;56.75;100325.70;1755640;80;20999;-75
2022/04/06 05:11:35;;;;;;;17.10;13.18;;;;;;;12.62;55.41;100325.22;1744762;82;20949;-75
2022/04/06 05:14:03;;;;;;;17.82;13.10;;;;;;;13.54;52.32;100317.96;1744632;81;20900;-75
2022/04/06 05:16:31;;;;;;;14.98;11.88;;;;;;;13.54;52.32;100317.96;1744635;80;21051;-74
2022/04/06 05:18:58;;;;;;;15.63;11.83;;;;;;;13.94;51.18;100321.44;1744533;82;20893;-75
2022/04/06 05:21:27;;;;;;;16.57;11.12;;;;;;;14.77;48.27;100335.44;1744546;81;20988;-74
2022/04/06 05:23:53;;;;;;;14.93;12.70;;;;;;;14.77;48.27;100335.44;1744628;81;20936;-76
2022/04/06 05:26:20;;;;;;;11.85;10.63;;;;;;;15.17;47.87;100335.25;1745013;82;20913;-75
2022/04/06 05:28:48;;;;;;;17.73;12.60;;;;;;;15.61;46.64;100330.66;1744829;82;21906;-76
2022/04/06 05:31:17;;;;;;;14.58;11.18;;;;;;;15.92;45.30;100320.94;1744561;80;21597;-75
2022/04/06 05:33:45;;;;;;;11.50;10.25;;;;;;;16.14;44.71;100323.36;1744310;81;21444;-76
2022/04/06 05:36:12;;;;;;;14.45;10.70;;;;;;;16.49;44.44;100327.31;1744517;82;21019;-76
2022/04/06 05:38:39;;;;;;;14.28;10.82;;;;;;;16.91;43.28;100336.35;1744554;82;20995;-75
2022/04/06 05:41:07;;;;;;;12.40;10.10;;;;;;;17.35;42.43;100335.89;1744660;81;21026;-75
2022/04/06 05:43:34;;;;;;;12.63;9.75;;;;;;;17.69;40.84;100340.17;1744453;82;20940;-75
2022/04/06 05:46:01;;;;;;;12.68;9.93;;;;;;;17.92;40.36;100342.02;1744627;81;21496;-76
2022/04/06 05:48:28;;;;;;;10.25;8.85;;;;;;;18.13;39.48;100336.45;1744595;82;20972;-77
2022/04/06 05:50:55;;;;;;;10.20;8.15;;;;;;;18.35;38.64;100336.54;1708737;82;20896;-77
2022/04/06 05:53:22;;;;;;;11.15;9.25;;;;;;;18.54;38.41;100339.58;1708826;84;21645;-76
2022/04/06 05:55:51;;;;;;;9.83;7.55;;;;;;;18.74;37.55;100346.91;1708781;82;20877;-76
2022/04/06 05:58:17;;;;;;;10.30;8.88;;;;;;;18.94;36.81;100348.09;1709021;82;20932;-75
2022/04/06 06:00:44;;;;;;;10.00;9.00;;;;;;;18.99;36.34;100345.33;1709180;84;21039;-76
2022/04/06 06:03:12;;;;;;;11.90;8.95;;;;;;;19.03;36.30;100349.81;1708822;84;20857;-74
2022/04/06 06:05:41;;;;;;;8.78;7.87;;;;;;;19.11;36.16;100351.72;1708861;84;20900;-76
2022/04/06 06:08:08;;;;;;;8.53;7.25;;;;;;;19.28;36.28;100350.86;1708817;84;20991;-75
2022/04/06 06:10:38;;;;;;;8.88;7.17;;;;;;;19.59;35.12;100364.53;1708672;83;20872;-77
2022/04/06 06:13:04;;;;;;;8.80;7.10;;;;;;;19.85;35.40;100371.68;1708801;83;20952;-77
2022/04/06 06:15:33;;;;;;;6.92;6.08;;;;;;;20.20;34.65;100364.02;1708822;84;20880;-77
2022/04/06 06:18:00;;;;;;;5.97;5.37;;;;;;;20.48;34.08;100373.11;1708829;84;21536;-77
2022/04/06 06:20:27;;;;;;;6.22;5.60;;;;;;;20.80;33.71;100372.86;1708715;84;21465;-76
2022/04/06 06:22:55;;;;;;;7.70;6.35;;;;;;;21.13;33.46;100382.22;1708801;84;20942;-76
2022/04/06 06:25:22;;;;;;;13.48;7.92;;;;;;;21.42;32.15;100381.73;1708798;82;20975;-75
2022/04/06 06:27:49;;;;;;;8.28;6.97;;;;;;;21.60;32.27;100378.36;1709123;84;20900;-77
2022/04/06 06:30:17;;;;;;;9.08;6.85;;;;;;;21.77;31.48;100383.17;1708872;84;20916;-78
2022/04/06 06:32:45;;;;;;;10.43;7.62;;;;;;;21.89;31.27;100391.13;1708703;84;20913;-77
2022/04/06 06:35:12;;;;;;;7.67;6.78;;;;;;;21.83;30.69;100391.84;1708826;82;20857;-76
2022/04/06 06:37:49;;;;;;;8.10;6.83;;;;;;;21.63;30.51;100390.53;1708698;82;21418;-76
2022/04/06 06:40:17;;;;;;;6.58;5.87;;;;;;;21.56;30.63;100393.55;1708822;82;21441;-75
2022/04/06 06:42:44;;;;;;;6.35;5.70;;;;;;;21.59;31.11;100393.20;1708818;84;21636;-77
2022/04/06 06:45:11;;;;;;;5.35;4.58;;;;;;;21.85;30.74;100394.32;1708647;84;21383;-77
2022/04/06 06:47:40;;;;;;;6.12;5.20;;;;;;;22.18;30.19;100396.89;1708675;84;20931;-77
2022/04/06 06:50:09;;;;;;;3.98;3.58;;;;;;;22.43;29.44;100405.14;1708828;84;20940;-76
2022/04/06 06:52:36;;;;;;;4.30;3.90;;;;;;;22.56;28.66;100401.39;1708877;84;21092;-74
2022/04/06 06:55:05;;;;;;;3.42;3.22;;;;;;;22.53;28.85;100403.09;1709202;82;21213;-77
2022/04/06 06:57:34;;;;;;;4.80;3.58;;;;;;;22.73;29.01;100406.15;1708877;84;20888;-74
2022/04/06 07:00:02;;;;;;;3.70;3.30;;;;;;;22.99;28.49;100398.30;1708757;82;21030;-77
2022/04/06 07:02:30;;;;;;;4.95;3.50;;;;;;;23.13;28.16;100401.55;1708776;84;20955;-78
2022/04/06 07:04:58;;;;;;;3.30;3.10;;;;;;;23.07;28.38;100406.79;1709094;84;20948;-76
2022/04/06 07:07:24;;;;;;;3.60;2.85;;;;;;;23.09;27.87;100405.59;1710052;84;21922;-74
2022/04/06 07:09:53;;;;;;;3.50;3.22;;;;;;;22.97;27.85;100405.16;1711366;82;20908;-73
2022/04/06 07:12:21;;;;;;;2.83;2.62;;;;;;;22.93;27.51;100411.87;1710560;84;20987;-76
2022/04/06 07:14:48;;;;;;;3.62;3.33;;;;;;;22.98;27.72;100401.97;1709201;84;20865;-76
2022/04/06 07:17:17;;;;;;;3.02;2.83;;;;;;;22.75;27.64;100404.13;1709446;84;21003;-77
2022/04/06 07:19:45;;;;;;;2.85;2.45;;;;;;;22.82;27.76;100401.59;1708990;84;21230;-77
2022/04/06 07:24:15;;;;;;;4.83;3.17;;;;;;;23.06;27.37;100397.11;1798061;79;22615;-77
2022/04/06 07:26:44;;;;;;;2.67;2.47;;;;;;;23.02;27.62;100399.81;1758771;81;21461;-77
2022/04/06 07:29:15;;;;;;;2.87;2.67;;;;;;;23.27;27.18;100404.45;1759074;80;21187;-77
2022/04/06 07:31:42;;;;;;;2.02;1.92;;;;;;;23.40;26.88;100409.20;1759516;81;20928;-78
2022/04/06 07:34:11;;;;;;;2.55;2.20;;;;;;;23.49;26.42;100402.24;1759382;80;20895;-77
2022/04/06 07:36:39;;;;;;;2.45;2.22;;;;;;;23.59;25.93;100410.03;1759003;80;20884;-76
2022/04/06 07:39:06;;;;;;;2.05;1.95;;;;;;;23.67;26.12;100424.66;1759475;80;20948;-77
2022/04/06 07:41:33;;;;;;;2.70;2.27;;;;;;;23.81;26.42;100415.52;1759176;80;21421;-77
2022/04/06 07:44:00;;;;;;;4.30;2.08;;;;;;;23.99;25.19;100426.20;1758663;80;20884;-77
2022/04/06 07:46:27;;;;;;;4.80;2.62;;;;;;;24.08;24.74;100418.05;1758884;80;21330;-77
2022/04/06 07:48:55;;;;;;;2.10;1.90;;;;;;;23.98;24.94;100427.72;1759333;80;20983;-79
2022/04/06 07:51:22;;;;;;;2.90;2.60;;;;;;;23.79;25.26;100428.59;1759170;80;21065;-77
2022/04/06 07:53:49;;;;;;;2.15;1.95;;;;;;;23.69;26.04;100432.52;1758840;80;21884;-79
2022/04/06 07:56:15;;;;;;;2.75;2.22;;;;;;;23.71;25.75;100437.19;1758827;80;20853;-78
2022/04/06 07:58:42;;;;;;;2.95;2.08;;;;;;;23.67;25.50;100434.54;1758700;80;20975;-77
2022/04/06 08:01:09;;;;;;;3.40;3.10;;;;;;;23.36;25.49;100428.79;1759074;80;20900;-77
2022/04/06 08:03:36;;;;;;;2.22;2.02;;;;;;;23.16;25.77;100433.28;1759691;80;21453;-77
2022/04/06 08:06:05;;;;;;;3.52;3.22;;;;;;;23.20;26.10;100432.44;1759119;81;21286;-77
2022/04/06 08:08:33;;;;;;;2.27;2.05;;;;;;;23.45;26.15;100431.72;1758459;80;21010;-75
2022/04/06 08:11:01;;;;;;;2.30;1.62;;;;;;;23.71;25.88;100435.33;1758237;80;21433;-77
2022/04/06 08:13:28;;;;;;;2.83;1.98;;;;;;;23.99;25.32;100436.92;1758296;81;20966;-76
2022/04/06 08:15:57;;;;;;;2.02;1.87;;;;;;;24.09;25.28;100432.61;1758725;80;20928;-76
2022/04/06 08:18:25;;;;;;;1.60;1.50;;;;;;;23.99;25.17;100427.55;1758846;80;21577;-77
2022/04/06 08:20:51;;;;;;;3.35;2.08;;;;;;;24.13;24.78;100429.89;1759275;80;20968;-76
2022/04/06 08:23:20;;;;;;;2.25;2.12;;;;;;;24.10;24.57;100431.62;1752212;81;21322;-76
2022/04/06 08:25:49;;;;;;;2.17;2.05;;;;;;;24.07;24.75;100431.14;1745454;81;20893;-76
2022/04/06 08:28:16;;;;;;;1.80;1.70;;;;;;;24.07;24.37;100431.97;1745387;81;21426;-77
2022/04/06 08:30:47;;;;;;;7.58;2.25;;;;;;;24.28;24.65;100424.53;1745568;81;21140;-78
2022/04/06 08:33:13;;;;;;;2.70;2.50;;;;;;;24.44;24.22;100423.48;1745707;81;21422;-79
2022/04/06 08:35:40;;;;;;;5.25;2.95;;;;;;;24.47;24.13;100427.64;1745415;82;20897;-75
2022/04/06 08:38:11;;;;;;;29.45;26.45;;;;;;;24.46;23.97;100434.03;1745634;81;20945;-75
2022/04/06 08:40:38;;;;;;;4.60;4.20;;;;;;;24.43;24.52;100432.53;1735338;82;21023;-77
2022/04/06 08:43:05;;;;;;;4.72;4.33;;;;;;;24.62;24.46;100429.81;1745634;81;21217;-75
2022/04/06 08:45:33;;;;;;;3.00;2.47;;;;;;;24.80;23.96;100436.09;1745053;82;21323;-75
2022/04/06 08:48:00;;;;;;;2.92;2.72;;;;;;;24.94;24.62;100418.28;1745146;82;20964;-77
2022/04/06 08:50:29;;;;;;;4.35;2.98;;;;;;;25.17;23.61;100426.98;1710337;82;20897;-76
2022/04/06 08:52:57;;;;;;;2.42;2.10;;;;;;;25.13;23.40;100435.61;1745151;81;20960;-76
2022/04/06 08:55:25;;;;;;;2.58;2.25;;;;;;;24.95;23.52;100448.13;1710250;82;21101;-77
2022/04/06 08:57:53;;;;;;;2.60;2.40;;;;;;;24.97;23.30;100432.67;1745239;81;20916;-79
2022/04/06 09:00:24;;;;;;;2.90;2.60;;;;;;;25.06;23.14;100422.12;1745022;80;21047;-79
2022/04/06 09:02:51;;;;;;;3.33;2.87;;;;;;;24.72;23.21;100430.36;1745229;82;20933;-78
2022/04/06 09:05:23;;;;;;;3.65;2.65;;;;;;;24.44;23.94;100430.19;1745073;80;20936;-77
2022/04/06 09:07:51;;;;;;;4.62;2.30;;;;;;;24.33;24.34;100431.50;1734643;81;21099;-77
2022/04/06 09:10:33;;;;;;;4.05;1.72;;;;;;;24.50;24.41;100429.97;1734920;82;20934;-77
2022/04/06 09:13:20;;;;;;;1.55;1.47;;;;;;;24.51;24.04;100429.78;1744906;81;21576;-79
2022/04/06 09:15:53;;;;;;;1.25;1.25;;;;;;;24.74;23.47;100426.13;1745068;81;20901;-77
2022/04/06 09:18:24;;;;;;;1.40;1.30;;;;;;;24.82;24.37;100431.38;1745283;81;21548;-76
2022/04/06 09:20:53;;;;;;;1.62;1.52;;;;;;;24.88;22.99;100413.19;1693787;82;21447;-77
2022/04/06 09:23:21;;;;;;;3.08;2.00;;;;;;;24.86;23.97;100419.25;1744686;80;20838;-76
2022/04/06 09:25:49;;;;;;;3.30;1.77;;;;;;;25.06;23.50;100413.23;1693922;82;20937;-76
2022/04/06 09:28:16;;;;;;;2.40;1.52;;;;;;;25.27;22.73;100413.26;1745349;82;20952;-76
2022/04/06 09:30:46;;;;;;;12.43;11.22;;;;;;;25.33;22.58;100415.17;1745061;81;21390;-77
2022/04/06 09:33:21;;;;;;;3.70;3.35;;;;;;;25.43;22.49;100398.72;1744818;81;21338;-76
2022/04/06 09:35:50;;;;;;;1.32;1.22;;;;;;;25.41;22.47;100417.73;1745678;81;20881;-77
2022/04/06 09:38:23;;;;;;;2.55;1.40;;;;;;;25.36;22.33;100420.66;1745815;81;20964;-77
2022/04/06 09:41:06;;;;;;;3.10;1.65;;;;;;;25.17;22.52;100419.45;1745582;81;21282;-78
2022/04/06 09:43:35;;;;;;;2.65;1.40;;;;;;;25.11;22.60;100421.55;1745503;82;20940;-78
2022/04/06 09:49:19;;;;;;;1.37;1.27;;;;;;;24.95;22.84;100410.57;1746068;81;20853;-78
2022/04/06 09:51:50;;;;;;;1.52;1.22;;;;;;;24.80;23.27;100415.98;1746066;81;20912;-77
2022/04/06 09:54:19;;;;;;;1.50;1.20;;;;;;;24.43;23.05;100419.65;1745593;81;20932;-77
2022/04/06 09:56:47;;;;;;;5.85;1.47;;;;;;;24.24;23.56;100429.11;1745389;82;20845;-76
2022/04/06 09:59:15;;;;;;;1.27;0.90;;;;;;;24.18;24.40;100416.77;1745082;81;21701;-77
2022/04/06 10:01:48;;;;;;;2.95;1.42;;;;;;;24.21;23.59;100422.25;1745339;81;20976;-76
2022/04/06 10:04:17;;;;;;;1.40;1.15;;;;;;;23.90;23.85;100434.02;1744998;81;20960;-76
2022/04/06 10:06:44;;;;;;;4.05;2.08;;;;;;;23.83;24.93;100430.37;1745605;81;21474;-74
2022/04/06 10:09:15;;;;;;;2.45;1.75;;;;;;;23.87;24.30;100419.63;1745654;82;20909;-78
2022/04/06 10:11:43;;;;;;;3.50;1.57;;;;;;;23.85;24.08;100432.89;1745612;80;20929;-76
2022/04/06 10:14:10;;;;;;;1.85;1.30;;;;;;;23.45;23.76;100427.70;1745858;81;20873;-76
2022/04/06 10:16:38;;;;;;;3.47;1.20;;;;;;;23.27;24.66;100431.22;1745144;81;21406;-77
2022/04/06 10:19:07;;;;;;;2.17;1.32;;;;;;;23.20;24.32;100428.42;1744829;82;20948;-77
2022/04/06 10:22:02;;;;;;;3.08;1.57;;;;;;;23.21;24.84;100434.12;1745080;81;20964;-76
2022/04/06 10:24:42;;;;;;;1.42;1.27;;;;;;;23.05;24.67;100430.20;1755357;80;21157;-75
2022/04/06 10:27:21;;;;;;;3.70;1.52;;;;;;;23.11;24.62;100427.65;1749974;81;20904;-74
2022/04/06 10:30:12;;;;;;;2.95;1.70;;;;;;;22.86;24.41;100428.30;1759495;81;20939;-75
2022/04/06 10:32:42;;;;;;;2.55;1.57;;;;;;;22.45;24.65;100431.19;1757475;81;20947;-78
2022/04/06 10:35:37;;;;;;;0.98;0.88;;;;;;;22.05;25.61;100436.98;1758091;81;21366;-77
2022/04/06 10:38:09;;;;;;;2.47;1.70;;;;;;;21.85;25.76;100431.19;1758104;81;21546;-80
2022/04/06 10:40:55;;;;;;;4.28;2.50;;;;;;;21.70;26.10;100427.58;1758376;81;20955;-79
2022/04/06 10:43:43;;;;;;;4.62;1.57;;;;;;;21.59;26.58;100435.42;1758145;81;20947;-78
2022/04/06 10:46:16;;;;;;;2.35;1.40;;;;;;;21.67;26.73;100438.56;1758440;80;20846;-80
2022/04/06 10:49:16;;;;;;;1.92;1.10;;;;;;;21.82;26.49;100442.22;1758507;81;21019;-78
2022/04/06 10:51:43;;;;;;;3.00;1.50;;;;;;;21.69;27.00;100448.07;1750820;81;21874;-78
2022/04/06 10:54:19;;;;;;;2.87;1.30;;;;;;;21.63;26.45;100450.58;1758094;81;20884;-75
2022/04/06 10:56:52;;;;;;;1.57;1.20;;;;;;;21.46;26.73;100448.44;1757947;80;20892;-78
2022/04/06 10:59:23;;;;;;;1.12;0.88;;;;;;;21.40;26.49;100438.40;1757937;80;20852;-76
2022/04/06 11:02:21;;;;;;;1.30;0.98;;;;;;;21.39;26.69;100444.72;1758233;80;21354;-75
2022/04/06 11:04:48;;;;;;;1.37;0.80;;;;;;;21.41;26.57;100440.94;1757958;81;21919;-76
2022/04/06 11:10:24;;;;;;;1.37;1.00;;;;;;;21.65;25.87;100440.06;1758078;81;20900;-79
2022/04/06 11:13:01;;;;;;;2.75;1.17;;;;;;;21.63;26.18;100443.91;1758210;81;21011;-77
2022/04/06 11:15:40;;;;;;;1.95;0.80;;;;;;;21.77;25.97;100434.41;1758127;81;20927;-75
2022/04/06 11:18:48;;;;;;;1.32;1.00;;;;;;;22.07;25.96;100426.96;1758181;81;21902;-77
2022/04/06 11:21:16;;;;;;;2.12;1.05;;;;;;;22.08;25.77;100435.31;1759838;81;20928;-78
2022/04/06 11:23:43;;;;;;;1.17;0.98;;;;;;;21.78;25.85;100440.89;1756666;81;20917;-78
2022/04/06 11:26:10;;;;;;;2.15;1.17;;;;;;;21.66;26.39;100433.73;1744935;81;21398;-77
2022/04/06 11:28:37;;;;;;;1.10;1.00;;;;;;;21.71;27.15;100431.89;1744936;81;20893;-77
2022/04/06 11:31:05;;;;;;;1.37;1.25;;;;;;;21.77;26.69;100443.23;1744589;81;21147;-77
2022/04/06 11:33:42;;;;;;;4.83;1.15;;;;;;;21.68;26.23;100433.58;1734213;82;21059;-77
2022/04/06 11:36:18;;;;;;;2.27;1.25;;;;;;;21.70;25.82;100431.58;1744769;81;21308;-77
2022/04/06 11:38:50;;;;;;;2.92;2.02;;;;;;;21.70;26.79;100432.41;1744746;80;20925;-75
2022/04/06 11:41:20;;;;;;;2.80;1.20;;;;;;;21.68;26.20;100430.41;1744715;81;20849;-78